Time;durP1;ratioP1;P1;durP2;ratioP2;P2;SDS_P1;SDS_P2;PMS_P1;PMS_P2;Temp;Humidity;BMP_temperature;BMP_pressure;BME280_temperature;BME280_humidity;BME280_pressure;Samples;Min_cycle;Max_cycle;Signal;HPM_P1;HPM_P2
2023/04/01 00:01:20;;;;;;;7.95;4.30;;;;;;;8.10;100.00;99148.16;7393575;19;20421;-68
2023/04/01 00:03:48;;;;;;;8.15;4.90;;;;;;;8.11;100.00;99139.41;7392994;19;20018;-68
2023/04/01 00:06:19;;;;;;;10.23;4.53;;;;;;;8.11;100.00;99137.66;7393509;19;20371;-68
2023/04/01 00:08:47;;;;;;;10.93;5.10;;;;;;;8.11;100.00;99137.66;7394787;19;20396;-68
2023/04/01 00:11:16;;;;;;;11.27;5.38;;;;;;;8.12;100.00;99134.13;7401115;19;20018;-68
2023/04/01 00:13:45;;;;;;;12.27;5.70;;;;;;;8.11;100.00;99136.81;7399435;19;20033;-69
2023/04/01 00:16:15;;;;;;;12.73;5.07;;;;;;;8.11;100.00;99142.91;7400961;19;20018;-68
2023/04/01 00:18:47;;;;;;;9.30;4.85;;;;;;;8.11;100.00;99139.41;7400772;19;20015;-68
2023/04/01 00:21:16;;;;;;;9.35;5.60;;;;;;;8.10;100.00;99132.47;7401276;19;20022;-69
2023/04/01 00:23:44;;;;;;;9.88;5.80;;;;;;;8.12;100.00;99141.13;7399334;19;20071;-68
2023/04/01 00:26:14;;;;;;;9.15;6.03;;;;;;;8.11;100.00;99134.19;7400559;19;20074;-68
2023/04/01 00:28:42;;;;;;;11.73;5.43;;;;;;;8.10;100.00;99135.97;7397982;19;20125;-68
2023/04/01 00:31:12;;;;;;;8.38;6.07;;;;;;;8.11;100.00;99134.19;7397934;19;20015;-69
2023/04/01 00:33:41;;;;;;;10.65;5.65;;;;;;;8.11;100.00;99124.63;7397593;19;20014;-69
2023/04/01 00:36:14;;;;;;;8.50;5.20;;;;;;;8.11;100.00;99129.84;7400251;19;20031;-69
2023/04/01 00:38:44;;;;;;;8.77;4.60;;;;;;;8.13;100.00;99137.59;7400676;19;20022;-69
2023/04/01 00:41:15;;;;;;;9.90;4.60;;;;;;;8.13;100.00;99128.00;7397745;19;20035;-68
2023/04/01 00:43:43;;;;;;;10.32;4.70;;;;;;;8.14;100.00;99131.47;7398535;19;20010;-69
2023/04/01 00:46:12;;;;;;;8.88;4.57;;;;;;;8.15;100.00;99125.31;7397251;19;20028;-69
2023/04/01 00:48:44;;;;;;;9.48;4.38;;;;;;;8.15;100.00;99128.81;7399833;19;20022;-69
2023/04/01 00:51:20;;;;;;;8.93;3.97;;;;;;;8.15;100.00;99125.31;7400231;19;20022;-69
2023/04/01 00:53:52;;;;;;;6.57;3.33;;;;;;;8.15;100.00;99127.94;7398499;19;20019;-69
2023/04/01 00:56:26;;;;;;;5.18;3.60;;;;;;;8.15;100.00;99136.63;7400033;19;20026;-69
2023/04/01 00:58:57;;;;;;;;;;;;;;;8.18;100.00;99140.06;7400827;19;20041;-69
2023/04/01 01:01:27;;;;;;;8.88;3.50;;;;;;;8.17;100.00;99133.97;7397688;19;19923;-69
2023/04/01 01:03:55;;;;;;;10.32;3.30;;;;;;;8.17;100.00;99133.97;7397556;19;20015;-69
2023/04/01 01:06:41;;;;;;;7.53;3.15;;;;;;;8.18;100.00;99134.84;7399264;19;20018;-68
2023/04/01 01:09:20;;;;;;;11.30;3.38;;;;;;;8.18;100.00;99135.66;7399234;19;20387;-68
2023/04/01 01:11:55;;;;;;;7.88;2.80;;;;;;;8.17;100.00;99141.81;7399534;19;20015;-68
2023/04/01 01:14:38;;;;;;;11.60;3.80;;;;;;;8.17;100.00;99140.97;7397520;19;20481;-68
2023/04/01 01:17:14;;;;;;;7.85;3.03;;;;;;;8.19;100.00;99133.91;7397211;19;20018;-69
2023/04/01 01:20:13;;;;;;;7.03;2.78;;;;;;;8.22;100.00;99141.63;7398814;19;20015;-69
2023/04/01 01:23:10;;;;;;;8.88;3.10;;;;;;;8.22;100.00;99139.03;7396572;19;20081;-69
2023/04/01 01:25:49;;;;;;;8.93;2.95;;;;;;;8.22;100.00;99131.19;7398633;19;20039;-69
2023/04/01 01:28:38;;;;;;;7.35;2.80;;;;;;;8.21;100.00;99132.94;7398633;19;20035;-69
2023/04/01 01:31:17;;;;;;;6.55;2.80;;;;;;;8.22;100.00;99137.25;7396103;19;20379;-69
2023/04/01 01:33:58;;;;;;;7.15;3.10;;;;;;;8.22;100.00;99137.25;7396393;19;20031;-69
2023/04/01 01:36:34;;;;;;;6.97;2.28;;;;;;;8.22;100.00;99137.25;7397985;19;20014;-69
2023/04/01 01:39:03;;;;;;;5.30;2.40;;;;;;;8.20;100.00;99133.88;7397865;19;20015;-69
2023/04/01 01:41:34;;;;;;;7.07;2.00;;;;;;;8.20;100.00;99128.63;7398118;19;20022;-68
2023/04/01 01:44:05;;;;;;;6.57;2.53;;;;;;;8.21;100.00;99132.94;7396332;19;20023;-68
2023/04/01 01:46:34;;;;;;;7.22;2.70;;;;;;;8.19;100.00;99132.16;7396471;19;20035;-68
2023/04/01 01:49:04;;;;;;;5.43;2.47;;;;;;;8.21;100.00;99135.53;7397842;19;20018;-68
2023/04/01 01:51:36;;;;;;;10.70;3.45;;;;;;;8.20;100.00;99139.09;7398292;19;20018;-68
2023/04/01 01:54:05;;;;;;;8.07;2.28;;;;;;;8.19;100.00;99137.38;7396536;19;20082;-69
2023/04/01 01:56:35;;;;;;;8.07;2.90;;;;;;;8.20;100.00;99135.59;7397243;19;20481;-69
2023/04/01 01:59:09;;;;;;;8.88;2.80;;;;;;;8.17;100.00;99140.97;7397508;19;20089;-69
2023/04/01 02:01:41;;;;;;;7.15;2.63;;;;;;;8.17;100.00;99144.41;7397943;19;20014;-69
2023/04/01 02:04:12;;;;;;;7.80;2.63;;;;;;;8.17;100.00;99146.19;7395735;19;20074;-68
2023/04/01 02:06:49;;;;;;;7.00;3.10;;;;;;;8.17;100.00;99139.19;7397000;19;20489;-69
2023/04/01 02:09:24;;;;;;;11.48;2.78;;;;;;;8.18;100.00;99146.13;7396878;19;20505;-69
2023/04/01 02:11:55;;;;;;;9.88;3.28;;;;;;;8.18;100.00;99147.91;7396809;19;20485;-69
2023/04/01 02:14:26;;;;;;;9.25;4.20;;;;;;;8.17;100.00;99147.03;7395725;19;20014;-68
2023/04/01 02:17:00;;;;;;;10.50;3.88;;;;;;;8.18;100.00;99145.28;7397077;19;20018;-68
2023/04/01 02:19:40;;;;;;;17.33;4.00;;;;;;;8.17;100.00;99154.03;7396585;19;20521;-69
2023/04/01 02:22:15;;;;;;;7.53;4.03;;;;;;;8.17;100.00;99144.41;7397287;19;20029;-69
2023/04/01 02:24:46;;;;;;;10.93;3.80;;;;;;;8.17;100.00;99144.41;7394773;19;20367;-69
2023/04/01 02:27:15;;;;;;;10.27;3.85;;;;;;;8.18;100.00;99148.72;7396294;19;20030;-69
2023/04/01 02:29:43;;;;;;;14.73;4.28;;;;;;;8.18;100.00;99145.28;7395834;19;20031;-69
2023/04/01 02:32:12;;;;;;;9.98;4.05;;;;;;;8.18;100.00;99148.72;7394197;19;20074;-69
2023/04/01 02:34:41;;;;;;;7.80;4.07;;;;;;;8.18;100.00;99156.56;7394306;19;20020;-69
2023/04/01 02:37:14;;;;;;;10.85;4.72;;;;;;;8.17;100.00;99149.63;7395787;19;20023;-69
2023/04/01 02:39:42;;;;;;;11.60;3.88;;;;;;;8.17;100.00;99164.47;7395962;19;20015;-70
2023/04/01 02:42:12;;;;;;;11.48;3.78;;;;;;;8.17;100.00;99159.25;7395650;19;20014;-75
2023/04/01 02:44:40;;;;;;;9.98;4.13;;;;;;;8.17;100.00;99160.09;7394557;19;20041;-69
2023/04/01 02:47:08;;;;;;;7.55;4.25;;;;;;;8.18;100.00;99163.56;7396086;19;20018;-70
2023/04/01 02:49:37;;;;;;;9.00;3.75;;;;;;;8.17;100.00;99165.31;7394450;19;20022;-70
2023/04/01 02:52:06;;;;;;;10.32;4.25;;;;;;;8.16;100.00;99168.81;7395507;19;20506;-69
2023/04/01 02:54:37;;;;;;;11.13;4.78;;;;;;;8.15;100.00;99165.38;7394245;19;20015;-69
2023/04/01 02:57:06;;;;;;;10.07;4.93;;;;;;;8.18;100.00;99176.63;7395386;19;20041;-70
2023/04/01 02:59:35;;;;;;;9.60;3.60;;;;;;;8.17;100.00;99177.53;7394061;19;20026;-69
2023/04/01 03:02:03;;;;;;;9.85;4.47;;;;;;;8.16;100.00;99176.66;7395516;19;20031;-69
2023/04/01 03:04:32;;;;;;;13.20;3.70;;;;;;;8.16;100.00;99179.28;7393603;19;20086;-69
2023/04/01 03:07:00;;;;;;;9.40;3.88;;;;;;;8.18;100.00;99176.63;7395041;19;20027;-69
2023/04/01 03:09:29;;;;;;;8.95;3.97;;;;;;;8.14;100.00;99179.34;7393762;19;20019;-69
2023/04/01 03:12:00;;;;;;;11.00;3.90;;;;;;;8.17;100.00;99180.16;7395227;19;20037;-69
2023/04/01 03:14:29;;;;;;;12.07;4.38;;;;;;;8.16;100.00;99187.13;7393253;19;20019;-68
2023/04/01 03:16:57;;;;;;;9.10;3.97;;;;;;;8.17;100.00;99190.59;7395014;19;20023;-68
2023/04/01 03:19:26;;;;;;;11.05;4.13;;;;;;;8.16;100.00;99184.50;7394858;19;20505;-68
2023/04/01 03:21:54;;;;;;;14.35;4.95;;;;;;;8.17;100.00;99185.38;7394808;19;20031;-73
2023/04/01 03:24:23;;;;;;;11.73;4.53;;;;;;;8.16;100.00;99184.50;7393533;19;20026;-70
2023/04/01 03:26:52;;;;;;;11.13;4.68;;;;;;;8.16;100.00;99184.50;7395038;19;20090;-69
2023/04/01 03:29:23;;;;;;;13.45;5.85;;;;;;;8.14;100.00;99189.78;7394884;19;20094;-68
2023/04/01 03:31:51;;;;;;;11.05;5.18;;;;;;;8.15;100.00;99194.13;7393545;19;20572;-68
2023/04/01 03:34:20;;;;;;;14.93;5.13;;;;;;;8.14;100.00;99187.19;7392711;19;20507;-69
2023/04/01 03:36:48;;;;;;;11.45;5.55;;;;;;;8.13;100.00;99185.47;7392353;19;20007;-69
2023/04/01 03:39:18;;;;;;;9.57;5.53;;;;;;;8.12;100.00;99191.59;7394583;19;20087;-69
2023/04/01 03:41:47;;;;;;;15.68;6.22;;;;;;;8.13;100.00;99189.84;7394510;19;20074;-68
2023/04/01 03:44:15;;;;;;;12.50;6.07;;;;;;;8.11;100.00;99197.75;7395147;19;20039;-67
2023/04/01 03:46:46;;;;;;;12.32;6.10;;;;;;;8.10;100.00;99195.19;7401464;19;20027;-67
2023/04/01 03:49:15;;;;;;;13.43;6.03;;;;;;;8.10;100.00;99197.78;7401485;19;20027;-68
2023/04/01 03:51:45;;;;;;;14.43;5.93;;;;;;;8.10;100.00;99200.41;7401461;19;20018;-68
2023/04/01 03:54:13;;;;;;;8.13;5.40;;;;;;;8.09;100.00;99201.34;7399383;19;20022;-67
2023/04/01 03:56:42;;;;;;;12.02;5.50;;;;;;;8.07;100.00;99201.38;7401295;19;20023;-68
2023/04/01 03:59:11;;;;;;;11.13;5.38;;;;;;;8.09;100.00;99203.94;7400596;19;20493;-68
2023/04/01 04:01:40;;;;;;;12.48;5.32;;;;;;;8.08;100.00;99203.06;7400852;19;20031;-68
2023/04/01 04:04:14;;;;;;;14.13;5.15;;;;;;;8.08;100.00;99207.47;7399147;19;20031;-67
2023/04/01 04:06:43;;;;;;;13.27;5.63;;;;;;;8.07;100.00;99200.53;7400684;19;20025;-67
2023/04/01 04:09:11;;;;;;;11.85;5.55;;;;;;;8.07;100.00;99203.13;7400569;19;20019;-68
2023/04/01 04:11:40;;;;;;;8.38;4.57;;;;;;;8.06;100.00;99209.25;7398415;19;20018;-68
2023/04/01 04:14:08;;;;;;;13.65;4.95;;;;;;;8.06;100.00;99214.47;7399130;19;20026;-68
2023/04/01 04:16:39;;;;;;;11.10;4.22;;;;;;;8.05;100.00;99218.00;7400532;19;20014;-68
2023/04/01 04:19:07;;;;;;;10.77;5.30;;;;;;;8.03;100.00;99215.44;7401279;19;20010;-69
2023/04/01 04:21:38;;;;;;;8.65;5.03;;;;;;;8.02;100.00;99224.19;7400676;19;20031;-68
2023/04/01 04:24:08;;;;;;;9.63;4.53;;;;;;;8.02;100.00;99224.19;7398515;19;20022;-69
2023/04/01 04:26:36;;;;;;;12.35;4.63;;;;;;;8.01;100.00;99229.47;7400217;19;20501;-68
2023/04/01 04:29:05;;;;;;;10.27;6.15;;;;;;;8.01;100.00;99226.84;7400139;19;20019;-68
2023/04/01 04:31:34;;;;;;;10.73;4.82;;;;;;;7.99;100.00;99230.38;7397822;19;20006;-68
2023/04/01 04:34:03;;;;;;;12.05;5.38;;;;;;;7.98;100.00;99233.88;7398602;19;20025;-68
2023/04/01 04:36:31;;;;;;;14.00;4.85;;;;;;;7.99;100.00;99229.53;7397421;19;20423;-68
2023/04/01 04:39:03;;;;;;;8.98;4.80;;;;;;;7.99;100.00;99232.97;7399917;19;20141;-69
2023/04/01 04:41:31;;;;;;;9.38;5.07;;;;;;;7.99;100.00;99238.22;7399707;19;20011;-69
2023/04/01 04:44:00;;;;;;;12.23;4.85;;;;;;;8.01;100.00;99242.53;7397528;19;20477;-68
2023/04/01 04:46:28;;;;;;;9.60;4.82;;;;;;;8.00;100.00;99236.47;7397592;19;20018;-68
2023/04/01 04:48:57;;;;;;;10.27;4.63;;;;;;;8.00;100.00;99241.69;7399669;19;20022;-68
2023/04/01 04:51:26;;;;;;;11.65;4.43;;;;;;;7.99;100.00;99239.97;7399838;19;20090;-69
2023/04/01 04:53:55;;;;;;;11.27;4.82;;;;;;;7.98;100.00;99239.09;7398331;19;20026;-68
2023/04/01 04:56:26;;;;;;;15.48;5.00;;;;;;;8.01;100.00;99242.53;7396663;19;20031;-69
2023/04/01 04:58:55;;;;;;;16.70;5.20;;;;;;;8.00;100.00;99239.06;7396819;19;20021;-68
2023/04/01 05:01:23;;;;;;;9.18;5.75;;;;;;;8.01;100.00;99237.31;7400342;19;20018;-68
2023/04/01 05:03:52;;;;;;;8.32;5.45;;;;;;;8.02;100.00;99244.25;7398060;19;20035;-68
2023/04/01 05:06:22;;;;;;;11.05;5.10;;;;;;;8.02;100.00;99239.00;7399250;19;20019;-68
2023/04/01 05:08:50;;;;;;;15.15;5.40;;;;;;;8.03;100.00;99246.78;7396910;19;20379;-67
2023/04/01 05:11:21;;;;;;;10.20;5.35;;;;;;;8.04;100.00;99247.63;7398871;19;20078;-68
2023/04/01 05:13:52;;;;;;;9.00;4.55;;;;;;;8.06;100.00;99246.69;7396933;19;20027;-68
2023/04/01 05:16:22;;;;;;;10.80;4.90;;;;;;;8.09;100.00;99248.34;7397431;19;20014;-68
2023/04/01 05:18:51;;;;;;;13.60;4.70;;;;;;;8.10;100.00;99245.69;7396650;19;20073;-68
2023/04/01 05:21:19;;;;;;;12.45;4.20;;;;;;;8.12;100.00;99251.69;7396915;19;20085;-68
2023/04/01 05:23:48;;;;;;;7.72;4.53;;;;;;;8.15;100.00;99250.72;7397110;19;20023;-68
2023/04/01 05:26:17;;;;;;;8.10;3.97;;;;;;;8.18;100.00;99249.78;7398121;19;20028;-68
2023/04/01 05:28:45;;;;;;;11.07;4.15;;;;;;;8.18;100.00;99250.63;7396221;19;20481;-68
2023/04/01 05:31:16;;;;;;;7.28;4.03;;;;;;;8.21;100.00;99255.72;7396629;19;20477;-68
2023/04/01 05:33:45;;;;;;;8.20;4.20;;;;;;;8.23;100.00;99259.16;7397412;19;20039;-68
2023/04/01 05:36:18;;;;;;;10.27;3.95;;;;;;;8.23;100.00;99259.16;7396659;19;20023;-68
2023/04/01 05:38:47;;;;;;;7.78;4.20;;;;;;;8.25;100.00;99254.72;7398026;19;20028;-68
2023/04/01 05:41:16;;;;;;;10.02;4.32;;;;;;;8.26;100.00;99256.41;7397766;19;20015;-68
2023/04/01 05:43:45;;;;;;;9.57;4.63;;;;;;;8.29;100.00;99260.66;7395975;19;20035;-68
2023/04/01 05:46:16;;;;;;;12.70;4.60;;;;;;;8.29;100.00;99264.16;7397972;19;20031;-68
2023/04/01 05:48:45;;;;;;;8.25;4.25;;;;;;;8.31;100.00;99271.94;7398114;19;20031;-67
2023/04/01 05:51:16;;;;;;;6.35;4.28;;;;;;;8.31;100.00;99275.41;7397676;19;20074;-67
2023/04/01 05:53:44;;;;;;;6.90;3.78;;;;;;;8.31;100.00;99278.03;7395402;19;20031;-67
2023/04/01 05:56:13;;;;;;;7.63;4.28;;;;;;;8.31;100.00;99275.41;7396013;19;20023;-68
2023/04/01 05:58:42;;;;;;;7.93;4.03;;;;;;;8.32;100.00;99277.09;7396908;19;20014;-67
2023/04/01 06:01:12;;;;;;;13.23;5.25;;;;;;;8.34;100.00;99287.50;7397213;19;20029;-68
2023/04/01 06:03:44;;;;;;;11.70;4.85;;;;;;;8.35;100.00;99288.34;7395582;19;20636;-68
2023/04/01 06:06:16;;;;;;;10.25;5.18;;;;;;;8.36;100.00;99287.47;7395919;19;20081;-68
2023/04/01 06:08:45;;;;;;;10.30;4.80;;;;;;;8.35;100.00;99290.97;7395155;19;20014;-68
2023/04/01 06:11:27;;;;;;;13.18;4.65;;;;;;;8.36;100.00;99292.69;7396999;19;20031;-68
2023/04/01 06:14:10;;;;;;;12.20;4.80;;;;;;;8.36;100.00;99298.75;7396155;19;20022;-68
2023/04/01 06:16:57;;;;;;;10.60;4.23;;;;;;;8.34;100.00;99297.09;7395826;19;20029;-68
2023/04/01 06:19:38;;;;;;;10.77;4.45;;;;;;;8.34;100.00;99303.19;7397319;19;20031;-68
2023/04/01 06:22:45;;;;;;;10.57;3.90;;;;;;;8.35;100.00;99299.66;7396277;19;20028;-68
2023/04/01 06:25:26;;;;;;;9.20;3.72;;;;;;;8.36;100.00;99295.28;7394581;19;20015;-69
2023/04/01 06:28:10;;;;;;;8.65;3.88;;;;;;;8.37;100.00;99303.06;7397060;19;20023;-69
2023/04/01 06:30:45;;;;;;;11.80;4.93;;;;;;;8.40;100.00;99302.09;7395891;19;20015;-68
2023/04/01 06:33:43;;;;;;;10.63;5.07;;;;;;;8.42;100.00;99305.53;7394844;19;20348;-67
2023/04/01 06:36:27;;;;;;;9.40;5.00;;;;;;;8.44;100.00;99308.91;7394182;19;20014;-68
2023/04/01 06:39:21;;;;;;;11.95;5.47;;;;;;;8.48;100.00;99308.81;7396580;19;20015;-68
2023/04/01 06:42:17;;;;;;;12.73;5.60;;;;;;;8.53;100.00;99307.78;7396123;19;20073;-68
2023/04/01 06:44:57;;;;;;;11.85;5.20;;;;;;;8.59;100.00;99313.66;7394281;19;20032;-67
2023/04/01 06:47:40;;;;;;;10.60;5.38;;;;;;;8.64;100.00;99308.22;7395723;19;20015;-68
2023/04/01 06:50:22;;;;;;;8.25;5.90;;;;;;;8.70;100.00;99309.78;7395575;19;20384;-68
2023/04/01 06:53:04;;;;;;;11.13;5.65;;;;;;;8.76;100.00;99314.78;7395294;19;20027;-68
2023/04/01 06:55:40;;;;;;;9.65;6.10;;;;;;;8.79;100.00;99319.91;7395525;19;20014;-68
2023/04/01 06:58:16;;;;;;;12.10;5.65;;;;;;;8.82;100.00;99311.94;7395538;19;20014;-68
2023/04/01 07:00:47;;;;;;;7.90;4.43;;;;;;;8.85;100.00;99310.97;7395910;19;20018;-68
2023/04/01 07:03:24;;;;;;;9.70;4.97;;;;;;;8.88;100.00;99316.91;7393401;19;20375;-69
2023/04/01 07:05:53;;;;;;;8.13;4.70;;;;;;;8.93;100.00;99317.63;7395755;19;20014;-68
2023/04/01 07:08:28;;;;;;;8.18;4.22;;;;;;;8.95;100.00;99312.34;7394833;19;20014;-68
2023/04/01 07:11:00;;;;;;;6.93;5.15;;;;;;;9.02;100.00;99323.41;7393160;19;20489;-68
2023/04/01 07:13:33;;;;;;;10.18;4.90;;;;;;;9.06;100.00;99327.59;7394186;19;20022;-68
2023/04/01 07:16:09;;;;;;;13.10;6.78;;;;;;;9.10;100.00;99329.22;7394493;19;20026;-68
2023/04/01 07:18:44;;;;;;;11.35;4.35;;;;;;;9.14;100.00;99328.19;7396017;19;20010;-68
2023/04/01 07:21:22;;;;;;;5.70;3.60;;;;;;;9.16;100.00;99322.88;7402685;19;20014;-69
2023/04/01 07:23:57;;;;;;;8.18;4.38;;;;;;;9.20;100.00;99327.06;7400506;19;20511;-67
2023/04/01 07:26:26;;;;;;;;;;;;;;;9.21;100.00;99318.31;7402888;19;20107;-67
2023/04/01 07:28:56;;;;;;;5.28;3.03;;;;;;;9.23;100.00;99330.44;7402145;19;19941;-67
2023/04/01 07:31:59;;;;;;;4.60;3.05;;;;;;;9.23;100.00;99337.44;7400073;19;20006;-67
2023/04/01 07:34:30;;;;;;;6.82;3.17;;;;;;;9.28;100.00;99328.47;7400001;19;20035;-67
2023/04/01 07:37:04;;;;;;;6.30;3.38;;;;;;;9.34;100.00;99331.78;7399283;19;20370;-68
2023/04/01 07:39:46;;;;;;;8.80;3.80;;;;;;;9.38;100.00;99328.13;7402235;19;20018;-68
2023/04/01 07:42:24;;;;;;;10.98;3.22;;;;;;;9.40;100.00;99328.91;7401795;19;20498;-67
2023/04/01 07:45:01;;;;;;;5.93;3.10;;;;;;;9.44;100.00;99333.97;7398552;19;20022;-68
2023/04/01 07:47:44;;;;;;;5.90;2.83;;;;;;;9.43;100.00;99332.25;7401264;19;20036;-69
2023/04/01 07:50:21;;;;;;;4.78;2.63;;;;;;;9.49;100.00;99332.94;7399387;19;20066;-67
2023/04/01 07:52:58;;;;;;;7.20;2.38;;;;;;;9.49;100.00;99336.41;7400601;19;20031;-67
2023/04/01 07:55:35;;;;;;;5.20;2.58;;;;;;;9.49;100.00;99336.41;7401311;19;20085;-68
2023/04/01 07:58:13;;;;;;;4.22;2.30;;;;;;;9.51;100.00;99341.59;7401202;19;20379;-68
2023/04/01 08:00:49;;;;;;;6.28;2.83;;;;;;;9.53;100.00;99343.22;7401416;19;20023;-68
2023/04/01 08:03:40;;;;;;;4.15;2.67;;;;;;;9.58;100.00;99350.91;7399712;19;20019;-69
2023/04/01 08:06:17;;;;;;;3.63;2.58;;;;;;;9.60;100.00;99349.06;7401483;19;20019;-68
2023/04/01 08:09:03;;;;;;;4.88;2.63;;;;;;;9.64;100.00;99355.03;7400539;19;20485;-67
2023/04/01 08:11:48;;;;;;;8.73;2.65;;;;;;;9.65;100.00;99357.59;7400980;19;20015;-68
2023/04/01 08:14:26;;;;;;;4.93;2.40;;;;;;;9.66;100.00;99361.91;7398082;19;20074;-69
2023/04/01 08:17:04;;;;;;;5.07;2.65;;;;;;;9.67;100.00;99362.75;7399199;19;20031;-67
2023/04/01 08:19:49;;;;;;;19.63;11.30;;;;;;;9.68;100.00;99360.09;7400880;19;20024;-67
2023/04/01 08:22:22;;;;;;;5.93;3.58;;;;;;;9.71;100.00;99357.34;7400739;19;20022;-68
2023/04/01 08:24:53;;;;;;;8.07;2.55;;;;;;;9.77;100.00;99366.75;7397564;19;20489;-67
2023/04/01 08:27:30;;;;;;;6.88;3.10;;;;;;;9.80;100.00;99363.13;7398206;19;20080;-69
2023/04/01 08:30:02;;;;;;;4.03;2.50;;;;;;;9.81;100.00;99368.31;7399790;19;20099;-68
2023/04/01 08:32:35;;;;;;;4.50;2.33;;;;;;;9.86;100.00;99370.75;7400124;19;20015;-69
2023/04/01 08:35:12;;;;;;;3.90;1.90;;;;;;;9.88;100.00;99364.53;7400210;19;20023;-67
2023/04/01 08:37:43;;;;;;;6.15;2.38;;;;;;;9.89;100.00;99366.22;7397043;19;20022;-68
2023/04/01 08:40:35;;;;;;;6.70;2.30;;;;;;;9.92;100.00;99375.72;7397301;19;20014;-68
2023/04/01 08:43:15;;;;;;;6.45;2.30;;;;;;;9.94;100.00;99366.91;7398978;19;20477;-68
2023/04/01 08:46:07;;;;;;;5.22;2.15;;;;;;;9.99;100.00;99369.31;7399149;19;20035;-68
2023/04/01 08:48:51;;;;;;;7.63;2.05;;;;;;;10.07;100.00;99372.47;7397476;19;20027;-68
2023/04/01 08:51:44;;;;;;;7.85;2.72;;;;;;;10.16;100.00;99370.38;7399253;19;20027;-68
2023/04/01 08:54:34;;;;;;;5.63;2.33;;;;;;;10.27;100.00;99370.78;7397483;19;20487;-68
2023/04/01 08:57:09;;;;;;;6.40;2.70;;;;;;;10.37;100.00;99374.72;7398335;19;20022;-68
2023/04/01 09:00:10;;;;;;;8.05;3.67;;;;;;;10.48;100.00;99376.06;7399867;19;20014;-68
2023/04/01 09:02:52;;;;;;;4.15;2.05;;;;;;;10.57;100.00;99380.91;7399450;19;20018;-68
2023/04/01 09:05:37;;;;;;;4.93;1.92;;;;;;;10.61;100.00;99374.59;7399033;19;20027;-67
2023/04/01 09:08:19;;;;;;;4.75;2.03;;;;;;;10.66;100.00;99372.63;7396006;19;20018;-69
2023/04/01 09:11:02;;;;;;;4.25;1.65;;;;;;;10.72;100.00;99374.97;7398424;19;20024;-68
2023/04/01 09:13:53;;;;;;;4.63;1.95;;;;;;;10.80;100.00;99377.25;7397023;19;20022;-67
2023/04/01 09:16:39;;;;;;;6.82;2.65;;;;;;;10.84;100.00;99376.22;7396437;19;20526;-68
2023/04/01 09:19:23;;;;;;;2.97;2.13;;;;;;;10.84;100.00;99378.84;7395282;19;20028;-67
2023/04/01 09:22:26;;;;;;;2.83;1.42;;;;;;;10.79;100.00;99382.59;7398352;19;20014;-68
2023/04/01 09:25:24;;;;;;;4.15;1.55;;;;;;;10.69;99.46;99387.38;7395376;19;20018;-68
2023/04/01 09:28:00;;;;;;;3.40;1.67;;;;;;;10.59;100.00;99386.94;7397856;19;20021;-67
2023/04/01 09:31:14;;;;;;;4.43;1.40;;;;;;;10.52;100.00;99382.88;7397195;19;20024;-67
2023/04/01 09:34:18;;;;;;;6.43;2.30;;;;;;;10.45;100.00;99384.94;7396145;19;20026;-68
2023/04/01 09:36:49;;;;;;;3.60;1.58;;;;;;;10.36;100.00;99386.16;7396619;19;20023;-68
2023/04/01 09:39:38;;;;;;;6.68;2.70;;;;;;;10.37;100.00;99394.88;7397822;19;20015;-67
2023/04/01 09:42:30;;;;;;;8.23;3.17;;;;;;;10.33;100.00;99388.88;7395373;19;20086;-67
2023/04/01 09:45:02;;;;;;;6.05;2.15;;;;;;;10.36;100.00;99388.78;7396606;19;20024;-68
2023/04/01 09:47:51;;;;;;;7.70;2.13;;;;;;;10.37;100.00;99392.25;7397273;19;20037;-67
2023/04/01 09:50:44;;;;;;;5.55;2.00;;;;;;;10.39;100.00;99391.25;7399499;19;20037;-67
2023/04/01 09:53:35;;;;;;;5.57;2.45;;;;;;;10.45;100.00;99394.53;7395623;19;20402;-68
2023/04/01 09:56:27;;;;;;;3.03;1.60;;;;;;;10.51;100.00;99395.13;7396226;19;20015;-68
2023/04/01 09:59:19;;;;;;;7.00;2.65;;;;;;;10.58;100.00;99396.56;7394899;19;20541;-68
2023/04/01 10:02:28;;;;;;;22.60;11.57;;;;;;;10.65;100.00;99397.16;7397508;19;20014;-68
2023/04/01 10:05:27;;;;;;;16.63;8.90;;;;;;;10.72;100.00;99403.00;7393990;19;20074;-68
2023/04/01 10:08:28;;;;;;;7.85;3.65;;;;;;;10.78;100.00;99407.97;7396418;19;20459;-67
2023/04/01 10:11:25;;;;;;;30.48;15.93;;;;;;;10.83;100.00;99406.00;7395326;19;20014;-67
2023/04/01 10:14:35;;;;;;;14.65;7.88;;;;;;;10.87;100.00;99406.72;7394973;19;20019;-68
2023/04/01 10:17:30;;;;;;;14.07;8.30;;;;;;;10.86;100.00;99410.25;7395053;19;20014;-68
2023/04/01 10:20:28;;;;;;;6.65;2.15;;;;;;;10.83;100.00;99408.63;7396038;19;20018;-67
2023/04/01 10:23:24;;;;;;;4.63;1.35;;;;;;;10.79;100.00;99412.28;7395734;19;20033;-68
2023/04/01 10:26:28;;;;;;;2.20;1.02;;;;;;;10.76;100.00;99415.03;7394377;19;20014;-67
2023/04/01 10:29:27;;;;;;;4.07;1.27;;;;;;;10.66;100.00;99419.84;7394923;19;20516;-67
2023/04/01 10:32:30;;;;;;;5.70;2.45;;;;;;;10.63;99.83;99421.72;7393851;19;20408;-67
2023/04/01 10:35:27;;;;;;;12.40;6.70;;;;;;;10.58;100.00;99414.94;7395995;19;20036;-67
2023/04/01 10:38:40;;;;;;;4.55;2.25;;;;;;;10.58;100.00;99419.34;7394604;19;20422;-67
2023/04/01 10:41:45;;;;;;;4.60;1.65;;;;;;;10.56;100.00;99424.66;7395032;19;20010;-71
2023/04/01 10:44:59;;;;;;;5.45;1.30;;;;;;;10.55;100.00;99424.69;7394300;19;20039;-69
2023/04/01 10:47:49;;;;;;;2.83;1.15;;;;;;;10.53;100.00;99423.94;7395518;19;20074;-67
2023/04/01 10:50:27;;;;;;;5.63;1.67;;;;;;;10.50;100.00;99424.03;7394331;19;20024;-67
2023/04/01 10:53:23;;;;;;;3.25;1.15;;;;;;;10.48;100.00;99425.91;7394609;19;20019;-67
2023/04/01 10:56:15;;;;;;;4.03;2.55;;;;;;;10.44;100.00;99425.16;7394961;19;20396;-68
2023/04/01 10:59:08;;;;;;;5.22;2.70;;;;;;;10.42;100.00;99429.59;7392775;19;20496;-69
2023/04/01 11:02:15;;;;;;;5.93;3.33;;;;;;;10.40;100.00;99423.56;7394349;19;20480;-67
2023/04/01 11:05:26;;;;;;;8.07;3.65;;;;;;;10.39;100.00;99422.72;7394399;19;20028;-67
2023/04/01 11:08:27;;;;;;;3.50;2.22;;;;;;;10.42;100.00;99429.59;7393067;19;20375;-67
2023/04/01 11:11:30;;;;;;;6.25;2.28;;;;;;;10.42;100.00;99430.44;7394502;19;20031;-67
2023/04/01 11:14:28;;;;;;;4.82;2.63;;;;;;;10.43;100.00;99421.66;7392746;19;20022;-71
2023/04/01 11:17:40;;;;;;;3.78;2.03;;;;;;;10.46;100.00;99423.31;7394161;19;20014;-69
2023/04/01 11:20:38;;;;;;;4.55;1.85;;;;;;;10.51;100.00;99426.59;7392434;19;20387;-69
2023/04/01 11:23:44;;;;;;;2.58;1.70;;;;;;;10.58;100.00;99424.56;7392419;19;20019;-68
2023/04/01 11:26:34;;;;;;;3.13;1.85;;;;;;;10.65;100.00;99430.41;7393150;19;20087;-69
2023/04/01 11:29:39;;;;;;;4.05;1.90;;;;;;;10.72;100.00;99427.44;7392298;19;20031;-69
2023/04/01 11:32:22;;;;;;;3.63;3.05;;;;;;;10.79;100.00;99424.56;7391452;19;20015;-70
2023/04/01 11:35:04;;;;;;;7.85;4.68;;;;;;;10.86;100.00;99432.09;7391544;19;20043;-69
2023/04/01 11:37:44;;;;;;;5.47;4.88;;;;;;;10.92;100.00;99433.59;7392311;19;20018;-70
2023/04/01 11:40:25;;;;;;;5.53;4.22;;;;;;;10.96;100.00;99429.91;7393554;19;20015;-69
2023/04/01 11:43:04;;;;;;;3.47;2.67;;;;;;;11.05;100.00;99441.78;7391299;19;20029;-69
2023/04/01 11:45:39;;;;;;;2.78;1.60;;;;;;;11.08;100.00;99439.00;7393641;19;20085;-69
2023/04/01 11:48:29;;;;;;;9.10;5.10;;;;;;;11.11;100.00;99441.50;7390719;19;20011;-69
2023/04/01 11:51:24;;;;;;;4.43;2.28;;;;;;;11.17;100.00;99446.47;7393543;19;20015;-69
2023/04/01 11:54:04;;;;;;;4.63;1.77;;;;;;;11.22;100.00;99443.63;7392367;19;20019;-70
2023/04/01 11:57:02;;;;;;;5.50;3.45;;;;;;;11.28;100.00;99456.47;7392968;19;20011;-69
2023/04/01 12:00:02;;;;;;;3.53;1.55;;;;;;;11.33;100.00;99457.13;7390688;19;20513;-69
2023/04/01 12:02:45;;;;;;;1.88;1.20;;;;;;;11.35;100.00;99459.72;7393519;19;20014;-70
2023/04/01 12:05:41;;;;;;;2.63;1.20;;;;;;;11.39;100.00;99462.09;7395121;19;20018;-70
2023/04/01 12:08:24;;;;;;;3.22;1.50;;;;;;;11.42;100.00;99466.38;7400856;19;20031;-70
2023/04/01 12:11:01;;;;;;;3.00;1.55;;;;;;;11.43;100.00;99472.47;7401113;19;20010;-69
2023/04/01 12:13:44;;;;;;;4.47;1.88;;;;;;;11.45;100.00;99470.63;7399069;19;20509;-68
2023/04/01 12:16:48;;;;;;;4.78;2.17;;;;;;;11.44;100.00;99479.41;7400818;19;20010;-69
2023/04/01 12:19:27;;;;;;;4.40;1.10;;;;;;;11.39;100.00;99485.75;7399216;19;20541;-68
2023/04/01 12:22:19;;;;;;;2.88;1.60;;;;;;;11.32;100.00;99486.09;7400441;19;20020;-68